sensor_id;sensor_type;location;lat;lon;timestamp;P1;durP1;ratioP1;P2;durP2;ratioP2
78774;SDS011;68119;43.398;3.676;2023-04-03T00:01:31;1.80;;;1.20;;
78774;SDS011;68119;43.398;3.676;2023-04-03T00:04:00;1.85;;;1.40;;
78774;SDS011;68119;43.398;3.676;2023-04-03T00:06:26;1.65;;;1.40;;
78774;SDS011;68119;43.398;3.676;2023-04-03T00:08:54;1.30;;;1.20;;
78774;SDS011;68119;43.398;3.676;2023-04-03T00:11:20;1.27;;;1.17;;
78774;SDS011;68119;43.398;3.676;2023-04-03T00:13:46;1.33;;;1.23;;
78774;SDS011;68119;43.398;3.676;2023-04-03T00:16:17;2.13;;;1.05;;
78774;SDS011;68119;43.398;3.676;2023-04-03T00:18:48;1.33;;;1.23;;
78774;SDS011;68119;43.398;3.676;2023-04-03T00:21:16;1.08;;;1.08;;
78774;SDS011;68119;43.398;3.676;2023-04-03T00:23:42;2.25;;;1.10;;
78774;SDS011;68119;43.398;3.676;2023-04-03T00:26:08;1.17;;;0.98;;
78774;SDS011;68119;43.398;3.676;2023-04-03T00:28:36;1.77;;;1.20;;
78774;SDS011;68119;43.398;3.676;2023-04-03T00:31:04;1.27;;;1.17;;
78774;SDS011;68119;43.398;3.676;2023-04-03T00:33:33;2.60;;;1.30;;
78774;SDS011;68119;43.398;3.676;2023-04-03T00:36:10;1.73;;;1.17;;
78774;SDS011;68119;43.398;3.676;2023-04-03T00:38:37;1.20;;;1.10;;
78774;SDS011;68119;43.398;3.676;2023-04-03T00:41:07;1.17;;;1.05;;
78774;SDS011;68119;43.398;3.676;2023-04-03T00:43:36;1.75;;;1.15;;
78774;SDS011;68119;43.398;3.676;2023-04-03T00:46:05;1.00;;;1.00;;
78774;SDS011;68119;43.398;3.676;2023-04-03T00:51:22;1.33;;;1.17;;
78774;SDS011;68119;43.398;3.676;2023-04-03T00:53:53;1.52;;;1.33;;
78774;SDS011;68119;43.398;3.676;2023-04-03T00:56:25;2.38;;;1.35;;
78774;SDS011;68119;43.398;3.676;2023-04-03T00:58:56;2.90;;;1.30;;
78774;SDS011;68119;43.398;3.676;2023-04-03T01:01:29;1.58;;;1.33;;
78774;SDS011;68119;43.398;3.676;2023-04-03T01:04:03;1.13;;;1.05;;
78774;SDS011;68119;43.398;3.676;2023-04-03T01:06:31;2.15;;;1.60;;
78774;SDS011;68119;43.398;3.676;2023-04-03T01:09:03;1.92;;;1.40;;
78774;SDS011;68119;43.398;3.676;2023-04-03T01:11:32;2.45;;;1.45;;
78774;SDS011;68119;43.398;3.676;2023-04-03T01:13:58;1.83;;;1.27;;
78774;SDS011;68119;43.398;3.676;2023-04-03T01:16:26;0.93;;;0.93;;
78774;SDS011;68119;43.398;3.676;2023-04-03T01:19:00;1.13;;;1.00;;
78774;SDS011;68119;43.398;3.676;2023-04-03T01:24:22;2.45;;;1.13;;
78774;SDS011;68119;43.398;3.676;2023-04-03T01:27:06;2.03;;;1.25;;
78774;SDS011;68119;43.398;3.676;2023-04-03T01:29:35;1.33;;;1.20;;
78774;SDS011;68119;43.398;3.676;2023-04-03T01:32:07;2.08;;;1.10;;
78774;SDS011;68119;43.398;3.676;2023-04-03T01:34:33;1.52;;;1.10;;
78774;SDS011;68119;43.398;3.676;2023-04-03T01:36:59;2.55;;;1.38;;
78774;SDS011;68119;43.398;3.676;2023-04-03T01:39:27;3.95;;;1.27;;
78774;SDS011;68119;43.398;3.676;2023-04-03T01:41:53;1.23;;;1.13;;
78774;SDS011;68119;43.398;3.676;2023-04-03T01:44:24;1.85;;;1.38;;
78774;SDS011;68119;43.398;3.676;2023-04-03T01:46:54;1.60;;;1.20;;
78774;SDS011;68119;43.398;3.676;2023-04-03T01:49:25;1.33;;;1.23;;
78774;SDS011;68119;43.398;3.676;2023-04-03T01:51:52;1.17;;;1.10;;
78774;SDS011;68119;43.398;3.676;2023-04-03T01:54:20;3.40;;;1.20;;
78774;SDS011;68119;43.398;3.676;2023-04-03T01:56:48;1.48;;;1.05;;
78774;SDS011;68119;43.398;3.676;2023-04-03T01:59:13;1.95;;;1.30;;
78774;SDS011;68119;43.398;3.676;2023-04-03T02:01:42;3.70;;;1.30;;
78774;SDS011;68119;43.398;3.676;2023-04-03T02:04:10;2.88;;;1.45;;
78774;SDS011;68119;43.398;3.676;2023-04-03T02:06:39;1.95;;;1.00;;
78774;SDS011;68119;43.398;3.676;2023-04-03T02:09:09;1.63;;;1.00;;
78774;SDS011;68119;43.398;3.676;2023-04-03T02:11:37;2.00;;;1.05;;
78774;SDS011;68119;43.398;3.676;2023-04-03T02:14:03;1.85;;;1.20;;
78774;SDS011;68119;43.398;3.676;2023-04-03T02:16:31;1.13;;;1.10;;
78774;SDS011;68119;43.398;3.676;2023-04-03T02:18:57;1.35;;;1.20;;
78774;SDS011;68119;43.398;3.676;2023-04-03T02:21:23;4.88;;;1.45;;
78774;SDS011;68119;43.398;3.676;2023-04-03T02:23:54;1.10;;;1.00;;
78774;SDS011;68119;43.398;3.676;2023-04-03T02:26:19;1.70;;;1.23;;
78774;SDS011;68119;43.398;3.676;2023-04-03T02:28:47;2.97;;;1.30;;
78774;SDS011;68119;43.398;3.676;2023-04-03T02:31:13;1.92;;;1.20;;
78774;SDS011;68119;43.398;3.676;2023-04-03T02:33:39;1.35;;;1.25;;
78774;SDS011;68119;43.398;3.676;2023-04-03T02:36:05;1.73;;;1.20;;
78774;SDS011;68119;43.398;3.676;2023-04-03T02:38:34;1.75;;;1.30;;
78774;SDS011;68119;43.398;3.676;2023-04-03T02:41:04;2.83;;;1.33;;
78774;SDS011;68119;43.398;3.676;2023-04-03T02:43:34;1.30;;;1.20;;
78774;SDS011;68119;43.398;3.676;2023-04-03T02:46:03;2.72;;;1.10;;
78774;SDS011;68119;43.398;3.676;2023-04-03T02:48:32;1.40;;;1.30;;
78774;SDS011;68119;43.398;3.676;2023-04-03T02:51:00;2.17;;;1.30;;
78774;SDS011;68119;43.398;3.676;2023-04-03T02:53:28;3.00;;;1.40;;
78774;SDS011;68119;43.398;3.676;2023-04-03T02:55:56;1.10;;;1.00;;
78774;SDS011;68119;43.398;3.676;2023-04-03T02:58:22;1.20;;;1.20;;
78774;SDS011;68119;43.398;3.676;2023-04-03T03:00:48;1.38;;;1.20;;
78774;SDS011;68119;43.398;3.676;2023-04-03T03:03:16;1.48;;;1.10;;
78774;SDS011;68119;43.398;3.676;2023-04-03T03:05:41;1.58;;;1.13;;
78774;SDS011;68119;43.398;3.676;2023-04-03T03:08:10;2.00;;;1.33;;
78774;SDS011;68119;43.398;3.676;2023-04-03T03:10:35;1.00;;;0.90;;
78774;SDS011;68119;43.398;3.676;2023-04-03T03:13:01;1.65;;;1.25;;
78774;SDS011;68119;43.398;3.676;2023-04-03T03:15:30;1.20;;;1.10;;
78774;SDS011;68119;43.398;3.676;2023-04-03T03:17:56;1.20;;;1.10;;
78774;SDS011;68119;43.398;3.676;2023-04-03T03:20:25;1.73;;;1.38;;
78774;SDS011;68119;43.398;3.676;2023-04-03T03:22:50;2.00;;;1.30;;
78774;SDS011;68119;43.398;3.676;2023-04-03T03:25:19;1.60;;;1.10;;
78774;SDS011;68119;43.398;3.676;2023-04-03T03:27:47;1.48;;;1.20;;
78774;SDS011;68119;43.398;3.676;2023-04-03T03:30:15;2.47;;;1.50;;
78774;SDS011;68119;43.398;3.676;2023-04-03T03:32:44;1.40;;;1.30;;
78774;SDS011;68119;43.398;3.676;2023-04-03T03:35:09;1.40;;;1.30;;
78774;SDS011;68119;43.398;3.676;2023-04-03T03:37:37;3.03;;;1.52;;
78774;SDS011;68119;43.398;3.676;2023-04-03T03:40:06;2.72;;;1.30;;
78774;SDS011;68119;43.398;3.676;2023-04-03T03:42:32;1.63;;;1.52;;
78774;SDS011;68119;43.398;3.676;2023-04-03T03:44:58;1.42;;;1.27;;
78774;SDS011;68119;43.398;3.676;2023-04-03T03:47:24;1.17;;;1.17;;
78774;SDS011;68119;43.398;3.676;2023-04-03T03:49:50;3.70;;;1.50;;
78774;SDS011;68119;43.398;3.676;2023-04-03T03:52:16;2.22;;;1.20;;
78774;SDS011;68119;43.398;3.676;2023-04-03T03:54:42;1.30;;;1.20;;
78774;SDS011;68119;43.398;3.676;2023-04-03T03:57:11;1.45;;;1.33;;
78774;SDS011;68119;43.398;3.676;2023-04-03T03:59:43;2.10;;;1.38;;
78774;SDS011;68119;43.398;3.676;2023-04-03T04:02:09;2.22;;;1.17;;
78774;SDS011;68119;43.398;3.676;2023-04-03T04:04:44;2.03;;;1.38;;
78774;SDS011;68119;43.398;3.676;2023-04-03T04:07:11;2.08;;;1.45;;
78774;SDS011;68119;43.398;3.676;2023-04-03T04:09:37;2.58;;;1.38;;
78774;SDS011;68119;43.398;3.676;2023-04-03T04:12:03;1.65;;;1.40;;
78774;SDS011;68119;43.398;3.676;2023-04-03T04:14:29;1.55;;;1.20;;
78774;SDS011;68119;43.398;3.676;2023-04-03T04:16:57;2.35;;;1.50;;
78774;SDS011;68119;43.398;3.676;2023-04-03T04:19:27;1.50;;;1.25;;
78774;SDS011;68119;43.398;3.676;2023-04-03T04:21:53;1.65;;;1.40;;
78774;SDS011;68119;43.398;3.676;2023-04-03T04:24:19;1.67;;;1.50;;
78774;SDS011;68119;43.398;3.676;2023-04-03T04:26:47;2.03;;;1.33;;
78774;SDS011;68119;43.398;3.676;2023-04-03T04:29:16;1.45;;;1.35;;
78774;SDS011;68119;43.398;3.676;2023-04-03T04:31:42;1.70;;;1.23;;
78774;SDS011;68119;43.398;3.676;2023-04-03T04:34:11;1.48;;;1.38;;
78774;SDS011;68119;43.398;3.676;2023-04-03T04:36:38;3.15;;;1.10;;
78774;SDS011;68119;43.398;3.676;2023-04-03T04:39:04;1.42;;;1.33;;
78774;SDS011;68119;43.398;3.676;2023-04-03T04:41:30;1.85;;;1.38;;
78774;SDS011;68119;43.398;3.676;2023-04-03T04:44:00;2.05;;;1.30;;
78774;SDS011;68119;43.398;3.676;2023-04-03T04:46:26;1.60;;;1.50;;
78774;SDS011;68119;43.398;3.676;2023-04-03T04:48:52;1.60;;;1.50;;
78774;SDS011;68119;43.398;3.676;2023-04-03T04:51:23;2.03;;;1.50;;
78774;SDS011;68119;43.398;3.676;2023-04-03T04:53:51;1.90;;;1.45;;
78774;SDS011;68119;43.398;3.676;2023-04-03T04:56:18;2.67;;;1.50;;
78774;SDS011;68119;43.398;3.676;2023-04-03T04:58:49;2.70;;;1.40;;
78774;SDS011;68119;43.398;3.676;2023-04-03T05:01:20;2.08;;;1.48;;
78774;SDS011;68119;43.398;3.676;2023-04-03T05:03:46;2.78;;;1.45;;
78774;SDS011;68119;43.398;3.676;2023-04-03T05:06:13;1.55;;;1.40;;
78774;SDS011;68119;43.398;3.676;2023-04-03T05:08:41;2.38;;;1.50;;
78774;SDS011;68119;43.398;3.676;2023-04-03T05:11:10;1.80;;;1.40;;
78774;SDS011;68119;43.398;3.676;2023-04-03T05:13:45;1.90;;;1.40;;
78774;SDS011;68119;43.398;3.676;2023-04-03T05:16:16;3.05;;;1.45;;
78774;SDS011;68119;43.398;3.676;2023-04-03T05:18:42;2.60;;;1.45;;
78774;SDS011;68119;43.398;3.676;2023-04-03T05:23:39;4.25;;;1.65;;
78774;SDS011;68119;43.398;3.676;2023-04-03T05:26:05;1.70;;;1.60;;
78774;SDS011;68119;43.398;3.676;2023-04-03T05:28:34;2.10;;;1.63;;
78774;SDS011;68119;43.398;3.676;2023-04-03T05:31:00;1.90;;;1.60;;
78774;SDS011;68119;43.398;3.676;2023-04-03T05:33:26;1.50;;;1.40;;
78774;SDS011;68119;43.398;3.676;2023-04-03T05:35:54;1.48;;;1.30;;
78774;SDS011;68119;43.398;3.676;2023-04-03T05:38:20;1.88;;;1.60;;
78774;SDS011;68119;43.398;3.676;2023-04-03T05:40:53;2.13;;;1.60;;
78774;SDS011;68119;43.398;3.676;2023-04-03T05:43:19;2.30;;;1.70;;
78774;SDS011;68119;43.398;3.676;2023-04-03T05:45:50;3.67;;;1.50;;
78774;SDS011;68119;43.398;3.676;2023-04-03T05:48:17;1.83;;;1.55;;
78774;SDS011;68119;43.398;3.676;2023-04-03T05:50:46;1.52;;;1.42;;
78774;SDS011;68119;43.398;3.676;2023-04-03T05:53:31;2.05;;;1.60;;
78774;SDS011;68119;43.398;3.676;2023-04-03T05:56:01;3.13;;;1.70;;
78774;SDS011;68119;43.398;3.676;2023-04-03T05:58:29;2.00;;;1.40;;
78774;SDS011;68119;43.398;3.676;2023-04-03T06:00:58;2.60;;;1.70;;
78774;SDS011;68119;43.398;3.676;2023-04-03T06:03:26;3.63;;;1.70;;
78774;SDS011;68119;43.398;3.676;2023-04-03T06:05:54;2.15;;;1.60;;
78774;SDS011;68119;43.398;3.676;2023-04-03T06:08:20;1.80;;;1.50;;
78774;SDS011;68119;43.398;3.676;2023-04-03T06:10:51;3.35;;;1.70;;
78774;SDS011;68119;43.398;3.676;2023-04-03T06:13:20;2.08;;;1.50;;
78774;SDS011;68119;43.398;3.676;2023-04-03T06:15:49;6.80;;;1.77;;
78774;SDS011;68119;43.398;3.676;2023-04-03T06:18:17;2.75;;;1.65;;
78774;SDS011;68119;43.398;3.676;2023-04-03T06:20:46;2.60;;;1.60;;
78774;SDS011;68119;43.398;3.676;2023-04-03T06:23:16;4.15;;;1.70;;
78774;SDS011;68119;43.398;3.676;2023-04-03T06:25:48;2.88;;;1.60;;
78774;SDS011;68119;43.398;3.676;2023-04-03T06:28:19;5.65;;;1.70;;
78774;SDS011;68119;43.398;3.676;2023-04-03T06:30:45;3.00;;;1.60;;
78774;SDS011;68119;43.398;3.676;2023-04-03T06:33:11;4.05;;;1.60;;
78774;SDS011;68119;43.398;3.676;2023-04-03T06:35:40;4.50;;;1.83;;
78774;SDS011;68119;43.398;3.676;2023-04-03T06:38:13;5.65;;;1.95;;
78774;SDS011;68119;43.398;3.676;2023-04-03T06:40:40;2.00;;;1.70;;
78774;SDS011;68119;43.398;3.676;2023-04-03T06:43:08;3.95;;;1.45;;
78774;SDS011;68119;43.398;3.676;2023-04-03T06:45:37;7.25;;;1.88;;
78774;SDS011;68119;43.398;3.676;2023-04-03T06:48:03;3.70;;;1.50;;
78774;SDS011;68119;43.398;3.676;2023-04-03T06:50:30;4.80;;;1.60;;
78774;SDS011;68119;43.398;3.676;2023-04-03T06:52:56;3.67;;;1.60;;
78774;SDS011;68119;43.398;3.676;2023-04-03T06:55:26;2.72;;;1.67;;
78774;SDS011;68119;43.398;3.676;2023-04-03T06:57:51;2.40;;;1.58;;
78774;SDS011;68119;43.398;3.676;2023-04-03T07:00:18;4.47;;;1.40;;
78774;SDS011;68119;43.398;3.676;2023-04-03T07:02:44;3.10;;;1.40;;
78774;SDS011;68119;43.398;3.676;2023-04-03T07:05:10;2.03;;;1.20;;
78774;SDS011;68119;43.398;3.676;2023-04-03T07:07:38;1.25;;;0.95;;
78774;SDS011;68119;43.398;3.676;2023-04-03T07:10:04;3.03;;;1.50;;
78774;SDS011;68119;43.398;3.676;2023-04-03T07:12:36;2.38;;;1.17;;
78774;SDS011;68119;43.398;3.676;2023-04-03T07:15:05;3.40;;;1.40;;
78774;SDS011;68119;43.398;3.676;2023-04-03T07:17:35;1.98;;;1.10;;
78774;SDS011;68119;43.398;3.676;2023-04-03T07:20:03;3.22;;;1.13;;
78774;SDS011;68119;43.398;3.676;2023-04-03T07:22:35;1.98;;;1.20;;
78774;SDS011;68119;43.398;3.676;2023-04-03T07:27:31;1.65;;;1.20;;
78774;SDS011;68119;43.398;3.676;2023-04-03T07:29:56;3.95;;;1.20;;
78774;SDS011;68119;43.398;3.676;2023-04-03T07:32:25;3.97;;;1.58;;
78774;SDS011;68119;43.398;3.676;2023-04-03T07:34:56;3.05;;;1.23;;
78774;SDS011;68119;43.398;3.676;2023-04-03T07:37:24;2.75;;;1.38;;
78774;SDS011;68119;43.398;3.676;2023-04-03T07:39:52;1.30;;;1.20;;
78774;SDS011;68119;43.398;3.676;2023-04-03T07:42:18;1.15;;;1.05;;
78774;SDS011;68119;43.398;3.676;2023-04-03T07:44:55;3.28;;;1.50;;
78774;SDS011;68119;43.398;3.676;2023-04-03T07:47:21;1.42;;;1.30;;
78774;SDS011;68119;43.398;3.676;2023-04-03T07:49:54;2.55;;;1.40;;
78774;SDS011;68119;43.398;3.676;2023-04-03T07:52:19;1.98;;;1.30;;
78774;SDS011;68119;43.398;3.676;2023-04-03T07:57:22;1.20;;;1.10;;
78774;SDS011;68119;43.398;3.676;2023-04-03T07:59:56;6.22;;;1.80;;
78774;SDS011;68119;43.398;3.676;2023-04-03T08:02:24;5.60;;;1.50;;
78774;SDS011;68119;43.398;3.676;2023-04-03T08:04:50;5.03;;;1.55;;
78774;SDS011;68119;43.398;3.676;2023-04-03T08:07:16;6.25;;;1.77;;
78774;SDS011;68119;43.398;3.676;2023-04-03T08:09:44;3.30;;;1.80;;
78774;SDS011;68119;43.398;3.676;2023-04-03T08:12:10;3.47;;;1.70;;
78774;SDS011;68119;43.398;3.676;2023-04-03T08:14:38;4.40;;;1.60;;
78774;SDS011;68119;43.398;3.676;2023-04-03T08:17:10;5.65;;;1.65;;
78774;SDS011;68119;43.398;3.676;2023-04-03T08:19:43;2.13;;;1.50;;
78774;SDS011;68119;43.398;3.676;2023-04-03T08:22:17;8.95;;;1.80;;
78774;SDS011;68119;43.398;3.676;2023-04-03T08:24:48;2.05;;;0.95;;
78774;SDS011;68119;43.398;3.676;2023-04-03T08:27:17;2.13;;;1.15;;
78774;SDS011;68119;43.398;3.676;2023-04-03T08:29:46;1.10;;;1.00;;
78774;SDS011;68119;43.398;3.676;2023-04-03T08:32:14;1.13;;;1.08;;
78774;SDS011;68119;43.398;3.676;2023-04-03T08:34:48;1.73;;;1.20;;
78774;SDS011;68119;43.398;3.676;2023-04-03T08:37:19;2.42;;;1.20;;
78774;SDS011;68119;43.398;3.676;2023-04-03T08:39:51;1.27;;;0.90;;
78774;SDS011;68119;43.398;3.676;2023-04-03T08:50:21;0.68;;;0.68;;
78774;SDS011;68119;43.398;3.676;2023-04-03T08:52:59;1.40;;;0.80;;
78774;SDS011;68119;43.398;3.676;2023-04-03T08:55:48;1.35;;;0.82;;
78774;SDS011;68119;43.398;3.676;2023-04-03T09:03:47;1.80;;;0.90;;
78774;SDS011;68119;43.398;3.676;2023-04-03T09:06:19;1.75;;;1.17;;
78774;SDS011;68119;43.398;3.676;2023-04-03T09:11:44;3.13;;;1.33;;
78774;SDS011;68119;43.398;3.676;2023-04-03T09:26:05;6.63;;;1.13;;
78774;SDS011;68119;43.398;3.676;2023-04-03T09:29:00;1.35;;;0.85;;
78774;SDS011;68119;43.398;3.676;2023-04-03T09:31:35;6.45;;;1.08;;
78774;SDS011;68119;43.398;3.676;2023-04-03T09:34:45;1.55;;;1.20;;
78774;SDS011;68119;43.398;3.676;2023-04-03T09:36:57;1.85;;;1.00;;
78774;SDS011;68119;43.398;3.676;2023-04-03T09:39:28;2.67;;;0.88;;
78774;SDS011;68119;43.398;3.676;2023-04-03T09:42:23;1.45;;;0.57;;
78774;SDS011;68119;43.398;3.676;2023-04-03T09:44:55;0.98;;;0.70;;
78774;SDS011;68119;43.398;3.676;2023-04-03T09:47:30;0.73;;;0.70;;
78774;SDS011;68119;43.398;3.676;2023-04-03T09:52:44;2.95;;;0.85;;
78774;SDS011;68119;43.398;3.676;2023-04-03T09:57:49;2.90;;;1.00;;
78774;SDS011;68119;43.398;3.676;2023-04-03T10:00:21;2.85;;;0.90;;
78774;SDS011;68119;43.398;3.676;2023-04-03T10:02:55;1.15;;;0.77;;
78774;SDS011;68119;43.398;3.676;2023-04-03T10:05:35;2.22;;;0.90;;
78774;SDS011;68119;43.398;3.676;2023-04-03T10:10:43;1.13;;;0.70;;
78774;SDS011;68119;43.398;3.676;2023-04-03T10:13:16;1.40;;;0.85;;
78774;SDS011;68119;43.398;3.676;2023-04-03T10:15:55;2.92;;;0.88;;
78774;SDS011;68119;43.398;3.676;2023-04-03T10:18:32;1.88;;;0.70;;
78774;SDS011;68119;43.398;3.676;2023-04-03T10:21:10;0.70;;;0.70;;
78774;SDS011;68119;43.398;3.676;2023-04-03T10:23:51;0.68;;;0.57;;
78774;SDS011;68119;43.398;3.676;2023-04-03T10:29:31;0.82;;;0.80;;
78774;SDS011;68119;43.398;3.676;2023-04-03T10:38:13;1.23;;;1.13;;
78774;SDS011;68119;43.398;3.676;2023-04-03T10:43:21;1.35;;;0.95;;
78774;SDS011;68119;43.398;3.676;2023-04-03T10:46:49;1.30;;;0.77;;
78774;SDS011;68119;43.398;3.676;2023-04-03T10:52:02;2.97;;;0.50;;
78774;SDS011;68119;43.398;3.676;2023-04-03T10:55:07;2.13;;;0.50;;
78774;SDS011;68119;43.398;3.676;2023-04-03T10:57:36;0.52;;;0.52;;
78774;SDS011;68119;43.398;3.676;2023-04-03T11:00:26;1.40;;;0.80;;
78774;SDS011;68119;43.398;3.676;2023-04-03T11:03:16;0.95;;;0.90;;
78774;SDS011;68119;43.398;3.676;2023-04-03T11:05:48;1.30;;;0.80;;
78774;SDS011;68119;43.398;3.676;2023-04-03T11:10:51;1.75;;;0.95;;
78774;SDS011;68119;43.398;3.676;2023-04-03T11:13:30;1.52;;;1.40;;
78774;SDS011;68119;43.398;3.676;2023-04-03T11:16:05;4.60;;;2.10;;
78774;SDS011;68119;43.398;3.676;2023-04-03T11:21:05;1.98;;;1.50;;
78774;SDS011;68119;43.398;3.676;2023-04-03T11:23:34;2.67;;;1.65;;
78774;SDS011;68119;43.398;3.676;2023-04-03T11:26:14;1.90;;;1.63;;
78774;SDS011;68119;43.398;3.676;2023-04-03T11:28:41;4.35;;;1.23;;
78774;SDS011;68119;43.398;3.676;2023-04-03T11:36:12;1.10;;;0.90;;
78774;SDS011;68119;43.398;3.676;2023-04-03T11:38:47;3.60;;;1.00;;
78774;SDS011;68119;43.398;3.676;2023-04-03T11:44:02;0.77;;;0.77;;
78774;SDS011;68119;43.398;3.676;2023-04-03T11:52:11;1.52;;;0.85;;
78774;SDS011;68119;43.398;3.676;2023-04-03T11:59:51;3.85;;;0.68;;
78774;SDS011;68119;43.398;3.676;2023-04-03T12:02:36;2.08;;;0.75;;
78774;SDS011;68119;43.398;3.676;2023-04-03T12:10:33;2.28;;;1.00;;
78774;SDS011;68119;43.398;3.676;2023-04-03T12:13:12;4.72;;;1.05;;
78774;SDS011;68119;43.398;3.676;2023-04-03T12:21:04;1.58;;;0.82;;
78774;SDS011;68119;43.398;3.676;2023-04-03T12:23:34;0.88;;;0.88;;
78774;SDS011;68119;43.398;3.676;2023-04-03T12:29:33;5.85;;;1.20;;
78774;SDS011;68119;43.398;3.676;2023-04-03T12:46:23;0.60;;;0.60;;
78774;SDS011;68119;43.398;3.676;2023-04-03T12:51:29;1.55;;;0.85;;
78774;SDS011;68119;43.398;3.676;2023-04-03T12:54:18;1.20;;;0.73;;
78774;SDS011;68119;43.398;3.676;2023-04-03T12:59:40;0.85;;;0.60;;
78774;SDS011;68119;43.398;3.676;2023-04-03T13:04:58;2.47;;;0.88;;
78774;SDS011;68119;43.398;3.676;2023-04-03T13:07:35;2.13;;;0.90;;
78774;SDS011;68119;43.398;3.676;2023-04-03T13:13:29;0.77;;;0.68;;
78774;SDS011;68119;43.398;3.676;2023-04-03T13:15:41;2.67;;;1.13;;
78774;SDS011;68119;43.398;3.676;2023-04-03T13:18:35;0.68;;;0.65;;
78774;SDS011;68119;43.398;3.676;2023-04-03T13:23:33;1.00;;;0.77;;
78774;SDS011;68119;43.398;3.676;2023-04-03T13:26:03;2.58;;;1.10;;
78774;SDS011;68119;43.398;3.676;2023-04-03T13:28:33;1.80;;;1.00;;
78774;SDS011;68119;43.398;3.676;2023-04-03T13:31:08;4.95;;;1.45;;
78774;SDS011;68119;43.398;3.676;2023-04-03T13:36:27;3.75;;;1.08;;
78774;SDS011;68119;43.398;3.676;2023-04-03T13:41:43;1.35;;;0.90;;
78774;SDS011;68119;43.398;3.676;2023-04-03T13:49:39;3.78;;;0.88;;
78774;SDS011;68119;43.398;3.676;2023-04-03T13:52:51;1.15;;;0.50;;
78774;SDS011;68119;43.398;3.676;2023-04-03T13:54:58;1.42;;;0.93;;
78774;SDS011;68119;43.398;3.676;2023-04-03T13:57:25;3.50;;;0.75;;
78774;SDS011;68119;43.398;3.676;2023-04-03T13:59:52;0.80;;;0.60;;
78774;SDS011;68119;43.398;3.676;2023-04-03T14:02:28;1.17;;;0.50;;
78774;SDS011;68119;43.398;3.676;2023-04-03T14:04:57;1.65;;;1.00;;
78774;SDS011;68119;43.398;3.676;2023-04-03T14:07:26;1.10;;;0.50;;
78774;SDS011;68119;43.398;3.676;2023-04-03T14:09:52;2.20;;;0.80;;
78774;SDS011;68119;43.398;3.676;2023-04-03T14:12:26;1.73;;;0.68;;
78774;SDS011;68119;43.398;3.676;2023-04-03T14:15:01;1.08;;;0.80;;
78774;SDS011;68119;43.398;3.676;2023-04-03T14:17:28;2.03;;;0.80;;
78774;SDS011;68119;43.398;3.676;2023-04-03T14:19:54;3.72;;;0.90;;
78774;SDS011;68119;43.398;3.676;2023-04-03T14:22:22;2.28;;;0.70;;
78774;SDS011;68119;43.398;3.676;2023-04-03T14:24:51;1.35;;;0.70;;
78774;SDS011;68119;43.398;3.676;2023-04-03T14:27:28;1.40;;;0.73;;
78774;SDS011;68119;43.398;3.676;2023-04-03T14:29:55;1.27;;;0.60;;
78774;SDS011;68119;43.398;3.676;2023-04-03T14:32:24;0.68;;;0.60;;
78774;SDS011;68119;43.398;3.676;2023-04-03T14:34:56;1.20;;;0.60;;
78774;SDS011;68119;43.398;3.676;2023-04-03T14:37:24;1.73;;;0.68;;
78774;SDS011;68119;43.398;3.676;2023-04-03T14:39:53;2.10;;;0.63;;
78774;SDS011;68119;43.398;3.676;2023-04-03T14:42:33;0.93;;;0.57;;
78774;SDS011;68119;43.398;3.676;2023-04-03T14:45:03;0.52;;;0.50;;
78774;SDS011;68119;43.398;3.676;2023-04-03T14:47:31;0.70;;;0.50;;
78774;SDS011;68119;43.398;3.676;2023-04-03T14:50:01;0.90;;;0.50;;
78774;SDS011;68119;43.398;3.676;2023-04-03T14:55:06;0.90;;;0.80;;
78774;SDS011;68119;43.398;3.676;2023-04-03T14:57:35;1.88;;;0.82;;
78774;SDS011;68119;43.398;3.676;2023-04-03T15:00:06;3.92;;;0.65;;
78774;SDS011;68119;43.398;3.676;2023-04-03T15:02:34;1.58;;;0.60;;
78774;SDS011;68119;43.398;3.676;2023-04-03T15:05:03;4.03;;;0.55;;
78774;SDS011;68119;43.398;3.676;2023-04-03T15:07:39;1.17;;;1.08;;
78774;SDS011;68119;43.398;3.676;2023-04-03T15:10:19;5.03;;;1.58;;
78774;SDS011;68119;43.398;3.676;2023-04-03T15:12:51;1.17;;;1.10;;
78774;SDS011;68119;43.398;3.676;2023-04-03T15:15:21;4.63;;;1.35;;
78774;SDS011;68119;43.398;3.676;2023-04-03T15:17:51;1.42;;;0.93;;
78774;SDS011;68119;43.398;3.676;2023-04-03T15:20:22;2.90;;;0.95;;
78774;SDS011;68119;43.398;3.676;2023-04-03T15:22:53;2.22;;;0.98;;
78774;SDS011;68119;43.398;3.676;2023-04-03T15:25:22;2.65;;;1.10;;
78774;SDS011;68119;43.398;3.676;2023-04-03T15:27:54;0.68;;;0.68;;
78774;SDS011;68119;43.398;3.676;2023-04-03T15:30:24;0.75;;;0.73;;
78774;SDS011;68119;43.398;3.676;2023-04-03T15:32:50;1.58;;;1.08;;
78774;SDS011;68119;43.398;3.676;2023-04-03T15:35:22;3.33;;;0.90;;
78774;SDS011;68119;43.398;3.676;2023-04-03T15:37:48;0.95;;;0.80;;
78774;SDS011;68119;43.398;3.676;2023-04-03T15:40:19;0.60;;;0.60;;
78774;SDS011;68119;43.398;3.676;2023-04-03T15:42:50;0.90;;;0.82;;
78774;SDS011;68119;43.398;3.676;2023-04-03T15:45:21;0.80;;;0.60;;
78774;SDS011;68119;43.398;3.676;2023-04-03T15:47:47;6.03;;;0.68;;
78774;SDS011;68119;43.398;3.676;2023-04-03T15:50:22;1.15;;;0.95;;
78774;SDS011;68119;43.398;3.676;2023-04-03T15:52:52;2.60;;;0.90;;
78774;SDS011;68119;43.398;3.676;2023-04-03T15:55:27;1.48;;;0.88;;
78774;SDS011;68119;43.398;3.676;2023-04-03T15:57:55;0.82;;;0.80;;
78774;SDS011;68119;43.398;3.676;2023-04-03T16:00:24;0.80;;;0.60;;
78774;SDS011;68119;43.398;3.676;2023-04-03T16:02:58;0.82;;;0.70;;
78774;SDS011;68119;43.398;3.676;2023-04-03T16:05:29;0.77;;;0.70;;
78774;SDS011;68119;43.398;3.676;2023-04-03T16:07:59;0.93;;;0.50;;
78774;SDS011;68119;43.398;3.676;2023-04-03T16:10:28;0.60;;;0.60;;
78774;SDS011;68119;43.398;3.676;2023-04-03T16:12:59;2.85;;;0.80;;
78774;SDS011;68119;43.398;3.676;2023-04-03T16:15:28;1.05;;;0.80;;
78774;SDS011;68119;43.398;3.676;2023-04-03T16:17:58;0.75;;;0.60;;
78774;SDS011;68119;43.398;3.676;2023-04-03T16:22:56;2.95;;;0.80;;
78774;SDS011;68119;43.398;3.676;2023-04-03T16:25:25;1.95;;;1.02;;
78774;SDS011;68119;43.398;3.676;2023-04-03T16:28:02;1.25;;;0.90;;
78774;SDS011;68119;43.398;3.676;2023-04-03T16:30:37;2.53;;;0.95;;
78774;SDS011;68119;43.398;3.676;2023-04-03T16:33:11;1.75;;;0.90;;
78774;SDS011;68119;43.398;3.676;2023-04-03T16:35:43;4.38;;;1.20;;
78774;SDS011;68119;43.398;3.676;2023-04-03T16:38:14;1.17;;;1.00;;
78774;SDS011;68119;43.398;3.676;2023-04-03T16:40:43;0.90;;;0.90;;
78774;SDS011;68119;43.398;3.676;2023-04-03T16:43:18;1.58;;;1.00;;
78774;SDS011;68119;43.398;3.676;2023-04-03T16:45:47;1.67;;;0.93;;
78774;SDS011;68119;43.398;3.676;2023-04-03T16:48:18;0.85;;;0.85;;
78774;SDS011;68119;43.398;3.676;2023-04-03T16:50:51;1.05;;;1.02;;
78774;SDS011;68119;43.398;3.676;2023-04-03T16:53:20;1.38;;;0.90;;
78774;SDS011;68119;43.398;3.676;2023-04-03T16:55:49;0.90;;;0.90;;
78774;SDS011;68119;43.398;3.676;2023-04-03T16:58:20;1.00;;;1.00;;
78774;SDS011;68119;43.398;3.676;2023-04-03T17:00:49;1.98;;;0.98;;
78774;SDS011;68119;43.398;3.676;2023-04-03T17:03:20;0.93;;;0.90;;
78774;SDS011;68119;43.398;3.676;2023-04-03T17:05:50;2.00;;;0.80;;
78774;SDS011;68119;43.398;3.676;2023-04-03T17:08:21;0.68;;;0.68;;
78774;SDS011;68119;43.398;3.676;2023-04-03T17:10:51;1.52;;;0.93;;
78774;SDS011;68119;43.398;3.676;2023-04-03T17:13:20;2.30;;;0.80;;
78774;SDS011;68119;43.398;3.676;2023-04-03T17:15:48;2.00;;;1.10;;
78774;SDS011;68119;43.398;3.676;2023-04-03T17:18:18;1.75;;;1.27;;
78774;SDS011;68119;43.398;3.676;2023-04-03T17:20:44;1.75;;;0.70;;
78774;SDS011;68119;43.398;3.676;2023-04-03T17:23:21;1.35;;;0.90;;
78774;SDS011;68119;43.398;3.676;2023-04-03T17:26:02;2.00;;;1.10;;
78774;SDS011;68119;43.398;3.676;2023-04-03T17:28:28;3.08;;;0.90;;
78774;SDS011;68119;43.398;3.676;2023-04-03T17:31:00;1.17;;;1.08;;
78774;SDS011;68119;43.398;3.676;2023-04-03T17:33:31;1.23;;;1.10;;